Time;durP1;ratioP1;P1;durP2;ratioP2;P2;SDS_P1;SDS_P2;PMS_P1;PMS_P2;Temp;Humidity;BMP_temperature;BMP_pressure;BME280_temperature;BME280_humidity;BME280_pressure;Samples;Min_cycle;Max_cycle;Signal;HPM_P1;HPM_P2
2022/08/25 00:01:40;;;;;;;32.78;11.57;;;;;;;20.37;100.00;94600.41;6112448;23;20176;-87
2022/08/25 00:04:10;;;;;;;35.63;11.68;;;;;;;20.44;100.00;94590.28;6112817;23;20161;-86
2022/08/25 00:06:37;;;;;;;28.75;11.70;;;;;;;20.45;100.00;94580.53;6114797;23;20168;-87
2022/08/25 00:09:05;;;;;;;27.05;11.45;;;;;;;20.41;100.00;94593.50;6117732;23;20242;-87
2022/08/25 00:11:34;;;;;;;27.25;11.23;;;;;;;20.42;100.00;94579.22;6117537;23;20195;-86
2022/08/25 00:14:09;;;;;;;28.95;10.70;;;;;;;20.40;100.00;94585.84;6116667;23;20172;-87
2022/08/25 00:16:37;;;;;;;25.83;11.45;;;;;;;20.32;100.00;94576.69;6114884;23;20184;-85
2022/08/25 00:19:08;;;;;;;24.40;11.88;;;;;;;20.29;100.00;94571.97;6115004;23;20577;-83
2022/08/25 00:21:35;;;;;;;34.22;11.27;;;;;;;20.27;100.00;94588.09;6116282;23;20163;-86
2022/08/25 00:24:03;;;;;;;23.30;11.23;;;;;;;20.24;100.00;94583.34;6118851;23;20168;-86
2022/08/25 00:26:30;;;;;;;34.17;12.45;;;;;;;20.22;100.00;94580.19;6116488;23;20168;-85
2022/08/25 00:28:57;;;;;;;32.60;12.43;;;;;;;20.11;100.00;94554.97;6116115;23;20175;-85
2022/08/25 00:31:26;;;;;;;31.77;11.85;;;;;;;20.28;100.00;94570.41;6116807;23;20175;-84
2022/08/25 00:33:53;;;;;;;29.65;11.27;;;;;;;20.32;100.00;94576.69;6115784;23;20210;-85
2022/08/25 00:36:21;;;;;;;26.42;11.27;;;;;;;20.31;100.00;94575.91;6114944;23;20169;-85
2022/08/25 00:38:48;;;;;;;26.25;12.20;;;;;;;20.30;100.00;94566.41;6115190;23;20207;-85
2022/08/25 00:41:19;;;;;;;25.95;11.32;;;;;;;20.35;100.00;94574.28;6115770;23;20168;-85
2022/08/25 00:43:50;;;;;;;30.67;11.90;;;;;;;20.40;100.00;94577.94;6113969;23;20157;-85
2022/08/25 00:46:20;;;;;;;26.38;11.70;;;;;;;20.56;100.00;94571.41;6117734;23;20192;-86
2022/08/25 00:48:56;;;;;;;29.10;11.27;;;;;;;20.59;100.00;94584.84;6117178;23;20191;-84
2022/08/25 00:51:30;;;;;;;30.98;11.93;;;;;;;20.40;100.00;94560.25;6114674;23;20207;-85
2022/08/25 00:53:57;;;;;;;26.38;12.48;;;;;;;20.54;100.00;94584.91;6117891;23;20168;-87
2022/08/25 00:56:25;;;;;;;39.70;11.80;;;;;;;20.51;100.00;94585.47;6116049;23;20247;-87
2022/08/25 00:58:53;;;;;;;31.90;12.07;;;;;;;20.42;100.00;94589.78;6116549;23;20200;-85
2022/08/25 01:01:20;;;;;;;29.48;11.10;;;;;;;20.47;100.00;94591.56;6116311;23;20173;-86
2022/08/25 01:03:48;;;;;;;26.48;12.02;;;;;;;20.26;100.00;94554.84;6116772;23;20397;-85
2022/08/25 01:06:15;;;;;;;27.70;11.20;;;;;;;20.35;100.00;94566.34;6116823;23;20176;-87
2022/08/25 01:08:42;;;;;;;28.67;11.30;;;;;;;20.35;100.00;94566.34;6118287;23;20168;-86
2022/08/25 01:11:11;;;;;;;28.85;11.55;;;;;;;20.26;100.00;94544.28;6117002;23;20180;-86
2022/08/25 01:13:41;;;;;;;33.20;11.88;;;;;;;20.36;100.00;94548.66;6117303;23;20195;-86
2022/08/25 01:16:09;;;;;;;35.65;12.10;;;;;;;20.27;100.00;94551.13;6117060;23;20626;-86
2022/08/25 01:18:45;;;;;;;28.85;11.70;;;;;;;20.27;100.00;94556.41;6117161;23;20196;-86
2022/08/25 01:21:13;;;;;;;39.00;12.27;;;;;;;20.32;100.00;94555.56;6116731;23;20172;-85
2022/08/25 01:23:40;;;;;;;31.55;12.07;;;;;;;20.33;100.00;94559.78;6115764;23;20165;-84
2022/08/25 01:26:11;;;;;;;29.52;11.43;;;;;;;20.31;100.00;94556.66;6116159;23;20177;-84
2022/08/25 01:29:19;;;;;;;22.80;11.50;;;;;;;20.25;100.00;94549.84;6116901;23;20225;-85
2022/08/25 01:31:28;;;;;;;28.08;11.60;;;;;;;20.15;100.00;94542.78;6117160;23;20655;-85
2022/08/25 01:33:55;;;;;;;32.67;11.27;;;;;;;20.17;100.00;94551.19;6117585;23;20562;-84
2022/08/25 01:36:26;;;;;;;26.05;11.05;;;;;;;20.13;100.00;94549.41;6116053;23;20172;-85
2022/08/25 01:38:53;;;;;;;28.45;11.65;;;;;;;20.16;100.00;94556.78;6114594;23;20226;-83
2022/08/25 01:41:31;;;;;;;33.38;12.07;;;;;;;20.18;100.00;94558.06;6115278;23;20172;-84
2022/08/25 01:43:58;;;;;;;23.15;10.65;;;;;;;20.09;100.00;94535.97;6116514;23;20194;-85
2022/08/25 01:46:25;;;;;;;24.17;11.20;;;;;;;20.14;100.00;94554.44;6116935;23;20164;-85
2022/08/25 01:48:52;;;;;;;28.65;10.48;;;;;;;20.11;100.00;94544.44;6115138;23;20167;-85
2022/08/25 01:51:21;;;;;;;33.75;11.10;;;;;;;20.07;100.00;94539.97;6113897;23;20200;-85
2022/08/25 01:53:49;;;;;;;28.27;10.88;;;;;;;20.07;100.00;94545.25;6116048;23;20172;-85
2022/08/25 01:56:16;;;;;;;28.33;10.23;;;;;;;20.18;100.00;94555.41;6115594;23;20172;-86
2022/08/25 01:58:47;;;;;;;29.58;10.30;;;;;;;20.19;100.00;94558.84;6115431;23;20210;-86
2022/08/25 02:01:18;;;;;;;23.45;9.90;;;;;;;20.24;100.00;94546.38;6116775;23;20184;-85
2022/08/25 02:03:47;;;;;;;25.60;9.32;;;;;;;20.49;100.00;94547.97;6116829;23;20164;-86
2022/08/25 02:06:16;;;;;;;20.33;8.88;;;;;;;20.63;100.00;94551.53;6114349;23;20179;-85
2022/08/25 02:08:43;;;;;;;25.35;9.93;;;;;;;20.71;100.00;94547.47;6113967;23;20170;-87
2022/08/25 02:11:13;;;;;;;22.17;9.40;;;;;;;20.70;100.00;94551.97;6115552;23;20168;-87
2022/08/25 02:13:41;;;;;;;22.42;9.88;;;;;;;20.65;100.00;94543.31;6116622;23;20662;-86
2022/08/25 02:16:14;;;;;;;22.17;9.60;;;;;;;20.64;100.00;94558.38;6117602;23;20181;-88
2022/08/25 02:18:41;;;;;;;27.20;9.40;;;;;;;20.57;100.00;94539.47;6117562;23;20572;-88
2022/08/25 02:21:10;;;;;;;29.75;9.80;;;;;;;20.61;100.00;94539.66;6116937;23;20180;-86
2022/08/25 02:23:37;;;;;;;25.02;10.57;;;;;;;20.59;100.00;94532.03;6118175;23;20231;-86
2022/08/25 02:26:03;;;;;;;26.30;9.50;;;;;;;20.61;100.00;94532.53;6118643;23;20171;-89
2022/08/25 02:28:32;;;;;;;22.80;10.38;;;;;;;20.61;100.00;94540.44;6117605;23;20722;-86
2022/08/25 02:30:59;;;;;;;32.45;9.45;;;;;;;20.61;100.00;94535.16;6116966;23;20498;-85
2022/08/25 02:33:26;;;;;;;34.88;9.18;;;;;;;20.55;100.00;94536.28;6116452;23;20183;-86
2022/08/25 02:35:52;;;;;;;24.80;9.73;;;;;;;20.49;100.00;94537.41;6117307;23;20271;-86
2022/08/25 02:38:19;;;;;;;32.42;10.25;;;;;;;20.50;100.00;94532.94;6117817;23;20584;-85
2022/08/25 02:40:46;;;;;;;25.40;10.10;;;;;;;20.46;100.00;94534.56;6117296;23;20191;-86
2022/08/25 02:43:13;;;;;;;32.10;10.65;;;;;;;20.45;100.00;94533.78;6117681;23;20168;-85
2022/08/25 02:45:41;;;;;;;26.35;8.82;;;;;;;20.44;100.00;94547.25;6117993;23;20187;-85
2022/08/25 02:48:08;;;;;;;32.22;10.15;;;;;;;20.44;100.00;94537.47;6115662;23;20496;-84
2022/08/25 02:50:35;;;;;;;27.95;10.10;;;;;;;20.25;100.00;94532.16;6115565;23;20271;-85
2022/08/25 02:53:02;;;;;;;29.40;9.80;;;;;;;20.26;100.00;94540.84;6117467;23;20248;-85
2022/08/25 02:55:29;;;;;;;25.27;9.85;;;;;;;20.25;100.00;94545.34;6117196;23;20172;-86
2022/08/25 02:57:56;;;;;;;28.85;9.70;;;;;;;20.25;100.00;94544.56;6116979;23;20663;-85
2022/08/25 03:00:22;;;;;;;26.83;11.30;;;;;;;20.25;100.00;94547.22;6117464;23;20174;-85
2022/08/25 03:02:51;;;;;;;27.10;10.70;;;;;;;20.26;100.00;94556.69;6117251;23;20631;-86
2022/08/25 03:05:18;;;;;;;23.13;10.63;;;;;;;20.26;100.00;94557.47;6116921;23;20230;-85
2022/08/25 03:07:44;;;;;;;27.98;9.73;;;;;;;20.30;100.00;94557.72;6116971;23;20169;-85
2022/08/25 03:10:14;;;;;;;29.85;10.30;;;;;;;20.28;100.00;94550.06;6116551;23;20164;-83
2022/08/25 03:12:41;;;;;;;25.08;10.60;;;;;;;20.29;100.00;94556.13;6117418;23;20165;-88
2022/08/25 03:15:10;;;;;;;26.20;10.13;;;;;;;20.15;100.00;94537.50;6117546;23;20176;-86
2022/08/25 03:17:37;;;;;;;30.67;10.90;;;;;;;20.21;100.00;94544.31;6117384;23;20172;-85
2022/08/25 03:20:07;;;;;;;35.28;11.45;;;;;;;20.15;100.00;94542.78;6117017;23;20628;-85
2022/08/25 03:22:34;;;;;;;35.58;10.80;;;;;;;20.19;100.00;94549.09;6117971;23;20279;-86
2022/08/25 03:27:42;;;;;;;29.42;9.60;;;;;;;20.07;100.00;94547.88;6114607;23;20227;-85
2022/08/25 03:30:11;;;;;;;24.67;9.50;;;;;;;19.80;100.00;94535.19;6117747;23;20168;-87
2022/08/25 03:32:38;;;;;;;32.40;10.38;;;;;;;19.95;100.00;94545.63;6118430;23;20169;-86
2022/08/25 03:35:07;;;;;;;26.35;10.00;;;;;;;19.99;100.00;94553.78;6117065;23;20176;-86
2022/08/25 03:37:35;;;;;;;19.85;9.95;;;;;;;19.98;100.00;94546.91;6117099;23;20172;-84
2022/08/25 03:40:02;;;;;;;26.63;10.55;;;;;;;19.95;100.00;94555.38;6116226;23;20196;-86
2022/08/25 03:42:29;;;;;;;26.98;10.48;;;;;;;20.01;100.00;94557.69;6116326;23;20183;-85
2022/08/25 03:44:56;;;;;;;26.63;11.38;;;;;;;20.01;100.00;94551.63;6115610;23;20540;-84
2022/08/25 03:47:25;;;;;;;31.52;10.93;;;;;;;20.04;100.00;94551.06;6117107;23;20168;-85
2022/08/25 03:49:52;;;;;;;34.22;10.52;;;;;;;20.08;100.00;94549.47;6116233;23;20565;-87
2022/08/25 03:52:20;;;;;;;28.83;10.70;;;;;;;20.07;100.00;94538.13;6116370;23;20514;-85
2022/08/25 03:54:47;;;;;;;28.30;11.00;;;;;;;20.09;100.00;94541.25;6116872;23;20730;-85
2022/08/25 03:57:14;;;;;;;23.70;10.52;;;;;;;20.16;100.00;94541.72;6116438;23;20192;-84
2022/08/25 03:59:41;;;;;;;23.70;10.80;;;;;;;20.09;100.00;94535.97;6116995;23;20196;-85
2022/08/25 04:02:08;;;;;;;27.92;12.18;;;;;;;20.44;100.00;94552.53;6116887;23;20179;-85
2022/08/25 04:04:35;;;;;;;56.47;27.00;;;;;;;20.55;100.00;94544.22;6116970;23;20173;-85
2022/08/25 04:07:02;;;;;;;54.88;35.30;;;;;;;20.59;100.00;94544.44;6116420;23;20195;-84
2022/08/25 04:09:30;;;;;;;87.30;51.13;;;;;;;20.54;100.00;94541.88;6116753;23;20172;-86
2022/08/25 04:11:57;;;;;;;98.18;55.22;;;;;;;20.49;100.00;94540.06;6115395;23;20173;-85
2022/08/25 04:14:24;;;;;;;90.43;52.50;;;;;;;20.41;100.00;94537.25;6115988;23;20604;-86
2022/08/25 04:16:52;;;;;;;53.08;28.15;;;;;;;20.32;100.00;94537.88;6115996;23;20172;-84
2022/08/25 04:19:20;;;;;;;45.00;22.73;;;;;;;20.27;100.00;94542.44;6115956;23;20226;-85
2022/08/25 04:21:47;;;;;;;44.58;25.17;;;;;;;20.25;100.00;94537.44;6116510;23;20552;-85
2022/08/25 04:24:14;;;;;;;52.03;24.63;;;;;;;20.19;100.00;94530.59;6116496;23;20254;-84
2022/08/25 04:26:46;;;;;;;48.30;25.23;;;;;;;20.32;100.00;94550.28;6114255;23;20168;-80
2022/08/25 04:29:15;;;;;;;52.30;27.17;;;;;;;20.36;100.00;94540.75;6111574;23;20252;-80
2022/08/25 04:31:45;;;;;;;40.22;20.05;;;;;;;20.32;100.00;94529.94;6111395;23;20172;-79
2022/08/25 04:34:13;;;;;;;39.22;21.70;;;;;;;20.36;100.00;94528.34;6112302;23;20173;-78
2022/08/25 04:36:40;;;;;;;36.45;16.58;;;;;;;20.46;100.00;94532.69;6112393;23;20172;-79
2022/08/25 04:39:08;;;;;;;37.50;13.40;;;;;;;20.30;100.00;94531.31;6111782;23;20200;-79
2022/08/25 04:41:35;;;;;;;36.45;14.18;;;;;;;20.18;100.00;94531.66;6112430;23;20179;-78
2022/08/25 04:44:04;;;;;;;40.60;16.02;;;;;;;20.14;100.00;94545.72;6111144;23;20172;-79
2022/08/25 04:46:33;;;;;;;40.55;19.35;;;;;;;20.20;100.00;94548.00;6111112;23;20179;-78
2022/08/25 04:49:02;;;;;;;33.70;16.60;;;;;;;20.31;100.00;94544.25;6112483;23;20168;-79
2022/08/25 04:51:31;;;;;;;37.95;17.50;;;;;;;20.44;100.00;94553.31;6112008;23;20200;-78
2022/08/25 04:53:59;;;;;;;43.22;14.88;;;;;;;20.39;100.00;94558.66;6111911;23;20176;-79
2022/08/25 04:56:26;;;;;;;27.77;12.63;;;;;;;20.56;100.00;94560.84;6113060;23;20443;-79
2022/08/25 04:58:53;;;;;;;33.80;13.35;;;;;;;20.81;100.00;94550.75;6114141;23;20196;-78
2022/08/25 05:01:23;;;;;;;43.83;17.27;;;;;;;20.98;100.00;94555.56;6114444;23;20172;-79
2022/08/25 05:03:54;;;;;;;40.72;17.92;;;;;;;21.05;100.00;94556.00;6113498;23;20195;-79
2022/08/25 05:06:21;;;;;;;33.78;17.20;;;;;;;21.17;100.00;94551.09;6114443;23;20164;-78
2022/08/25 05:08:48;;;;;;;50.85;16.70;;;;;;;21.17;100.00;94553.75;6115392;23;20172;-78
2022/08/25 05:11:16;;;;;;;37.63;16.75;;;;;;;21.15;100.00;94553.25;6116126;23;20180;-78
2022/08/25 05:13:44;;;;;;;36.38;14.98;;;;;;;21.12;100.00;94553.03;6113132;23;20772;-77
2022/08/25 05:16:11;;;;;;;31.25;13.40;;;;;;;21.12;100.00;94548.53;6115211;23;20176;-82
2022/08/25 05:18:40;;;;;;;34.38;12.45;;;;;;;21.20;100.00;94544.47;6114539;23;20762;-79
2022/08/25 05:21:09;;;;;;;27.63;12.45;;;;;;;21.22;100.00;94539.66;6114453;23;20624;-79
2022/08/25 05:23:37;;;;;;;26.60;11.77;;;;;;;21.22;100.00;94542.31;6115095;23;20229;-80
2022/08/25 05:26:05;;;;;;;22.75;11.30;;;;;;;21.04;100.00;94543.84;6113920;23;20195;-78
2022/08/25 05:28:33;;;;;;;30.50;12.18;;;;;;;21.01;100.00;94544.41;6112665;23;20666;-80
2022/08/25 05:31:01;;;;;;;28.02;11.18;;;;;;;20.92;100.00;94538.22;6112708;23;20181;-80
2022/08/25 05:33:29;;;;;;;33.20;11.02;;;;;;;20.81;100.00;94534.13;6112506;23;20205;-79
2022/08/25 05:35:57;;;;;;;33.70;11.35;;;;;;;20.74;100.00;94538.97;6113350;23;20172;-79
2022/08/25 05:38:24;;;;;;;30.08;10.60;;;;;;;20.65;100.00;94533.53;6112673;23;20172;-74
2022/08/25 05:40:53;;;;;;;25.42;11.32;;;;;;;20.55;100.00;94538.94;6113958;23;20179;-73
2022/08/25 05:43:20;;;;;;;30.33;11.15;;;;;;;20.52;100.00;94541.38;6113576;23;20172;-74
2022/08/25 05:45:47;;;;;;;25.20;10.40;;;;;;;20.46;100.00;94537.22;6112348;23;20808;-73
2022/08/25 05:48:14;;;;;;;27.95;11.60;;;;;;;20.61;100.00;94537.00;6112328;23;20566;-74
2022/08/25 05:50:41;;;;;;;32.42;11.00;;;;;;;20.59;100.00;94537.31;6112286;23;20207;-73
2022/08/25 05:53:09;;;;;;;31.02;11.27;;;;;;;20.70;100.00;94538.75;6113231;23;20218;-74
2022/08/25 05:55:36;;;;;;;26.85;10.18;;;;;;;20.72;100.00;94541.13;6113102;23;20191;-74
2022/08/25 05:58:03;;;;;;;25.48;10.63;;;;;;;20.76;100.00;94545.53;6114226;23;20269;-74
2022/08/25 06:00:30;;;;;;;20.95;10.20;;;;;;;20.79;100.00;94538.91;6111674;23;20208;-76
2022/08/25 06:02:57;;;;;;;33.80;10.63;;;;;;;20.70;100.00;94541.38;6112377;23;20173;-74
2022/08/25 06:05:24;;;;;;;29.55;10.77;;;;;;;20.70;100.00;94551.97;6101649;23;20176;-74
2022/08/25 06:07:52;;;;;;;34.42;11.20;;;;;;;20.80;100.00;94543.13;6110292;23;20623;-75
2022/08/25 06:10:20;;;;;;;23.02;10.82;;;;;;;20.84;100.00;94546.75;6112339;23;20244;-75
2022/08/25 06:12:48;;;;;;;28.55;10.63;;;;;;;20.80;100.00;94537.84;6113202;23;20212;-74
2022/08/25 06:15:17;;;;;;;30.75;11.75;;;;;;;20.88;100.00;94548.56;6113495;23;20168;-74
2022/08/25 06:17:45;;;;;;;23.42;10.50;;;;;;;21.01;100.00;94549.69;6112809;23;20513;-74
2022/08/25 06:20:15;;;;;;;27.02;11.95;;;;;;;21.18;100.00;94550.03;6111657;23;20200;-75
2022/08/25 06:22:42;;;;;;;29.88;10.30;;;;;;;21.21;100.00;94548.69;6112010;23;20168;-74
2022/08/25 06:25:11;;;;;;;23.83;11.25;;;;;;;21.08;100.00;94536.97;6112049;23;20184;-74
2022/08/25 06:27:41;;;;;;;29.00;11.75;;;;;;;21.07;100.00;94535.34;6112049;23;20214;-74
2022/08/25 06:30:13;;;;;;;25.70;10.65;;;;;;;21.09;100.00;94537.75;6111008;23;20164;-73
2022/08/25 06:32:42;;;;;;;28.95;10.95;;;;;;;21.10;100.00;94539.31;6113420;23;20198;-74
2022/08/25 06:35:12;;;;;;;34.08;11.15;;;;;;;21.48;100.00;94539.00;6110414;23;20176;-74
2022/08/25 06:37:40;;;;;;;19.70;10.43;;;;;;;21.66;100.00;94541.91;6112755;23;20172;-74
2022/08/25 06:40:08;;;;;;;27.00;10.80;;;;;;;21.62;100.00;94540.91;6110376;23;20206;-74
2022/08/25 06:42:36;;;;;;;24.70;10.65;;;;;;;21.66;100.00;94539.25;6111141;23;20196;-73
2022/08/25 06:45:05;;;;;;;26.55;10.40;;;;;;;21.76;100.00;94547.03;6112290;23;21129;-75
2022/08/25 06:47:32;;;;;;;25.80;10.40;;;;;;;21.82;100.00;94543.22;6113640;23;20578;-73
2022/08/25 06:49:59;;;;;;;19.45;10.13;;;;;;;21.94;100.00;94544.34;6112447;23;20200;-74
2022/08/25 06:52:25;;;;;;;27.73;10.13;;;;;;;22.07;100.00;94547.31;6112178;23;20510;-74
2022/08/25 06:54:53;;;;;;;26.08;10.25;;;;;;;22.27;100.00;94547.75;6111884;23;20176;-75
2022/08/25 06:57:20;;;;;;;23.83;9.88;;;;;;;22.32;100.00;94544.22;6112233;23;20614;-74
2022/08/25 06:59:47;;;;;;;24.17;10.40;;;;;;;22.23;100.00;94538.03;6111437;23;20193;-74
2022/08/25 07:02:15;;;;;;;19.75;9.57;;;;;;;22.19;100.00;94545.00;6111707;23;20172;-75
2022/08/25 07:04:42;;;;;;;20.73;9.52;;;;;;;22.42;100.00;94544.78;6111801;23;20176;-74
2022/08/25 07:07:08;;;;;;;21.02;9.65;;;;;;;22.67;100.00;94543.56;6112380;23;20176;-75
2022/08/25 07:09:35;;;;;;;19.67;10.27;;;;;;;22.90;100.00;94547.84;6110370;23;20547;-72
2022/08/25 07:12:03;;;;;;;33.63;10.82;;;;;;;22.94;100.00;94545.41;6112879;23;20190;-78
2022/08/25 07:14:30;;;;;;;27.23;10.98;;;;;;;23.07;100.00;94547.22;6112098;23;20631;-74
2022/08/25 07:16:57;;;;;;;20.50;9.73;;;;;;;23.11;100.00;94548.22;6112453;23;20651;-76
2022/08/25 07:19:25;;;;;;;32.65;10.52;;;;;;;23.09;100.00;94543.19;6111056;23;20542;-74
2022/08/25 07:21:53;;;;;;;25.67;10.35;;;;;;;23.06;100.00;94543.00;6111472;23;20176;-75
2022/08/25 07:24:20;;;;;;;25.90;10.43;;;;;;;23.16;100.00;94550.75;6111828;23;20169;-75
2022/08/25 07:26:50;;;;;;;25.58;10.48;;;;;;;23.13;100.00;94546.03;6113434;23;20256;-82
2022/08/25 07:29:19;;;;;;;22.38;9.35;;;;;;;23.08;100.00;94543.50;6112808;23;20247;-74
2022/08/25 07:31:46;;;;;;;22.63;9.05;;;;;;;23.05;100.00;94541.44;6111754;23;20194;-73
2022/08/25 07:36:59;;;;;;;21.77;9.20;;;;;;;23.03;100.00;94544.38;6111420;23;20797;-74
2022/08/25 07:39:27;;;;;;;23.60;8.95;;;;;;;23.09;100.00;94542.41;6112434;23;20200;-75
2022/08/25 07:41:54;;;;;;;12.57;7.50;;;;;;;23.19;100.00;94544.84;6112069;23;20176;-75
2022/08/25 07:44:22;;;;;;;34.63;9.85;;;;;;;23.32;100.00;94543.25;6112489;23;20181;-75
2022/08/25 07:46:49;;;;;;;22.70;9.60;;;;;;;23.41;100.00;94544.91;6112380;23;20454;-74
2022/08/25 07:49:17;;;;;;;25.90;9.35;;;;;;;23.49;100.00;94548.72;6111861;23;20172;-74
2022/08/25 07:51:44;;;;;;;29.60;8.95;;;;;;;23.41;99.27;94552.84;6110505;23;20221;-73
2022/08/25 07:54:13;;;;;;;19.77;7.47;;;;;;;23.46;100.00;94560.69;6109813;23;20835;-75
2022/08/25 07:56:41;;;;;;;16.92;8.65;;;;;;;23.60;100.00;94550.84;6112598;23;20187;-76
2022/08/25 07:59:09;;;;;;;26.95;9.00;;;;;;;23.45;99.69;94532.59;6112122;23;20172;-76
2022/08/25 08:01:37;;;;;;;21.75;9.32;;;;;;;23.57;98.89;94551.44;6111790;23;20164;-75
2022/08/25 08:04:04;;;;;;;27.05;9.15;;;;;;;23.53;98.15;94542.50;6112147;23;20169;-76
2022/08/25 08:06:31;;;;;;;29.42;9.63;;;;;;;23.40;99.81;94543.34;6111874;23;20172;-76
2022/08/25 08:08:59;;;;;;;21.38;9.55;;;;;;;23.44;99.97;94546.94;6110730;23;20176;-76
2022/08/25 08:11:29;;;;;;;20.73;9.05;;;;;;;23.90;98.33;94537.88;6108926;23;20168;-76
2022/08/25 08:13:57;;;;;;;22.35;8.30;;;;;;;24.12;96.16;94540.56;6111822;23;20172;-76
2022/08/25 08:16:29;;;;;;;27.65;8.43;;;;;;;24.32;96.13;94545.34;6112685;23;20255;-76
2022/08/25 08:18:56;;;;;;;24.90;9.13;;;;;;;24.31;94.79;94521.72;6111263;23;20620;-76
2022/08/25 08:21:28;;;;;;;29.20;9.57;;;;;;;24.35;94.80;94525.34;6110797;23;20236;-76
2022/08/25 08:23:56;;;;;;;20.25;8.45;;;;;;;24.39;96.08;94532.38;6111868;23;20515;-76
2022/08/25 08:26:23;;;;;;;20.73;8.55;;;;;;;24.32;94.51;94523.28;6111931;23;20177;-76
2022/08/25 08:28:52;;;;;;;27.17;8.15;;;;;;;24.14;94.54;94519.78;6113262;23;20211;-76
2022/08/25 08:31:19;;;;;;;22.20;8.30;;;;;;;24.11;94.59;94526.47;6114329;23;20172;-75
2022/08/25 08:33:47;;;;;;;27.85;8.80;;;;;;;24.23;94.73;94528.56;6113647;23;20168;-76
2022/08/25 08:36:14;;;;;;;29.00;9.45;;;;;;;24.26;93.73;94523.44;6112498;23;20848;-76
2022/08/25 08:38:43;;;;;;;27.85;8.93;;;;;;;24.32;94.20;94516.13;6111845;23;20175;-76
2022/08/25 08:44:18;;;;;;;27.25;8.50;;;;;;;24.55;93.34;94522.91;6112680;23;20163;-75
2022/08/25 08:46:54;;;;;;;24.27;8.68;;;;;;;24.67;92.78;94512.47;6113220;23;20160;-75
2022/08/25 08:49:30;;;;;;;21.30;8.57;;;;;;;24.90;92.18;94512.38;6113021;23;20182;-76
2022/08/25 08:52:01;;;;;;;20.15;8.57;;;;;;;25.00;90.84;94522.72;6113044;23;20207;-75
2022/08/25 08:54:34;;;;;;;26.75;8.75;;;;;;;25.11;91.89;94513.34;6112435;23;20161;-75
2022/08/25 08:57:08;;;;;;;43.10;9.15;;;;;;;25.07;90.01;94505.22;6112564;23;20160;-76
2022/08/25 08:59:46;;;;;;;28.35;8.43;;;;;;;25.08;89.60;94521.97;6113126;23;20218;-76
2022/08/25 09:02:17;;;;;;;31.00;8.63;;;;;;;24.83;89.54;94507.53;6109403;23;20156;-76
2022/08/25 09:04:48;;;;;;;35.65;10.18;;;;;;;24.94;90.24;94505.34;6112708;23;20156;-83
2022/08/25 09:07:20;;;;;;;35.65;7.97;;;;;;;25.01;89.07;94511.78;6116514;23;20161;-85
2022/08/25 09:09:47;;;;;;;29.88;8.52;;;;;;;25.20;87.52;94509.59;6113652;23;20163;-83
2022/08/25 09:12:26;;;;;;;29.08;7.95;;;;;;;25.27;87.09;94509.13;6116296;23;20172;-84
2022/08/25 09:15:03;;;;;;;29.35;7.85;;;;;;;25.48;88.18;94506.66;6115966;23;20927;-85
2022/08/25 09:17:43;;;;;;;35.70;7.80;;;;;;;25.70;85.97;94507.25;6115123;23;20195;-84
2022/08/25 09:20:33;;;;;;;43.97;7.75;;;;;;;25.88;85.97;94495.47;6115651;23;20187;-85
2022/08/25 09:23:10;;;;;;;22.35;7.20;;;;;;;26.14;83.81;94507.94;6114904;23;20161;-76
2022/08/25 09:25:44;;;;;;;26.27;6.97;;;;;;;26.22;82.31;94507.13;6115262;23;20195;-79
2022/08/25 09:28:20;;;;;;;41.78;8.05;;;;;;;26.31;83.65;94507.88;6113222;23;20230;-76
2022/08/25 09:30:54;;;;;;;28.75;7.35;;;;;;;26.35;83.00;94504.25;6113602;23;20160;-78
2022/08/25 09:33:23;;;;;;;38.72;7.80;;;;;;;26.30;81.46;94490.31;6112752;23;20171;-79
2022/08/25 09:35:52;;;;;;;26.65;7.07;;;;;;;26.23;80.09;94498.06;6112206;23;21111;-79
2022/08/25 09:38:19;;;;;;;38.80;7.35;;;;;;;26.22;80.34;94496.47;6113739;23;20198;-78
2022/08/25 09:40:49;;;;;;;28.38;6.57;;;;;;;26.32;78.87;94498.81;6114809;23;20193;-79
2022/08/25 09:43:29;;;;;;;25.35;6.80;;;;;;;26.39;79.43;94497.19;6114694;23;20168;-79
2022/08/25 09:45:59;;;;;;;30.50;7.38;;;;;;;26.38;78.43;94476.16;6114525;23;20160;-79
2022/08/25 09:48:28;;;;;;;32.80;7.13;;;;;;;26.38;75.93;94492.16;6114553;23;20153;-80
2022/08/25 09:51:01;;;;;;;36.45;8.32;;;;;;;26.33;78.70;94493.13;6113070;23;20541;-79
2022/08/25 09:53:29;;;;;;;28.33;7.88;;;;;;;26.29;78.54;94499.44;6113239;23;20164;-79
2022/08/25 09:56:03;;;;;;;40.67;8.40;;;;;;;26.24;77.59;94497.72;6113618;23;20176;-78
2022/08/25 09:58:31;;;;;;;36.10;7.07;;;;;;;26.10;78.76;94499.00;6111092;23;20200;-78
2022/08/25 10:01:07;;;;;;;35.20;7.90;;;;;;;26.05;78.31;94502.63;6113247;23;20560;-79
2022/08/25 10:03:34;;;;;;;24.90;7.15;;;;;;;26.15;78.49;94504.16;6111935;23;20196;-78
2022/08/25 10:06:07;;;;;;;37.58;7.28;;;;;;;26.44;76.55;94504.22;6111942;23;20244;-77
2022/08/25 10:11:38;;;;;;;35.35;6.38;;;;;;;26.97;71.24;94503.63;6112891;23;20652;-81
2022/08/25 10:14:18;;;;;;;20.30;4.93;;;;;;;27.03;72.44;94505.81;6113365;23;20172;-79
2022/08/25 10:16:48;;;;;;;41.85;7.38;;;;;;;27.16;71.97;94503.22;6113358;23;20178;-79
2022/08/25 10:19:25;;;;;;;20.73;5.72;;;;;;;27.29;72.87;94496.81;6113176;23;20173;-81
2022/08/25 10:22:05;;;;;;;37.28;7.55;;;;;;;27.35;71.22;94492.84;6113277;23;20180;-80
2022/08/25 10:24:33;;;;;;;16.60;6.55;;;;;;;27.41;71.81;94503.03;6114049;23;20165;-79
2022/08/25 10:27:09;;;;;;;19.58;5.20;;;;;;;27.72;70.14;94493.78;6113129;23;21161;-82
2022/08/25 10:30:00;;;;;;;27.98;5.13;;;;;;;28.07;67.90;94498.50;6114915;23;20200;-80
2022/08/25 10:32:39;;;;;;;42.00;5.80;;;;;;;28.46;68.81;94486.38;6112885;23;20176;-81
2022/08/25 10:35:12;;;;;;;16.13;4.65;;;;;;;28.84;66.09;94487.94;6114538;23;20164;-80
2022/08/25 10:37:50;;;;;;;25.98;4.93;;;;;;;28.77;64.66;94491.19;6114715;23;20157;-80
2022/08/25 10:40:24;;;;;;;19.67;4.63;;;;;;;28.70;64.24;94493.66;6112838;23;20180;-80
2022/08/25 10:43:05;;;;;;;26.70;4.43;;;;;;;28.50;63.86;94491.84;6113530;23;20464;-79
2022/08/25 10:45:42;;;;;;;17.45;4.43;;;;;;;28.34;64.23;94485.59;6113324;23;20275;-79
2022/08/25 10:48:51;;;;;;;26.55;5.28;;;;;;;28.52;63.15;94477.00;6113888;23;20168;-80
2022/08/25 10:51:38;;;;;;;24.38;5.00;;;;;;;28.64;62.71;94484.28;6122719;23;20698;-80
2022/08/25 10:54:15;;;;;;;21.05;4.18;;;;;;;28.88;62.62;94470.09;6113493;23;20164;-80
2022/08/25 10:56:50;;;;;;;16.80;4.05;;;;;;;28.96;62.79;94471.88;6113236;23;20165;-78
2022/08/25 10:59:38;;;;;;;23.17;4.45;;;;;;;28.84;62.47;94472.66;6113315;23;20163;-79
2022/08/25 11:02:41;;;;;;;14.77;4.40;;;;;;;28.73;63.68;94473.47;6112284;23;20195;-79
2022/08/25 11:05:12;;;;;;;22.65;4.20;;;;;;;28.78;63.51;94465.97;6113844;23;20542;-79
2022/08/25 11:07:44;;;;;;;25.90;4.10;;;;;;;29.03;63.19;94477.44;6113567;23;20634;-79
2022/08/25 11:10:16;;;;;;;22.13;4.38;;;;;;;29.33;62.36;94473.34;6113979;23;20157;-79
2022/08/25 11:12:49;;;;;;;27.67;5.18;;;;;;;29.71;61.76;94468.28;6113355;23;20646;-80
2022/08/25 11:15:21;;;;;;;30.20;5.07;;;;;;;29.87;60.17;94467.56;6111651;23;20173;-81
2022/08/25 11:17:57;;;;;;;30.40;4.88;;;;;;;29.84;58.95;94466.38;6110554;23;20164;-80
2022/08/25 11:20:32;;;;;;;17.05;4.60;;;;;;;29.57;59.78;94459.88;6113036;23;20214;-80
2022/08/25 11:23:08;;;;;;;22.90;4.65;;;;;;;29.27;59.75;94456.75;6113221;23;20164;-79
2022/08/25 11:25:41;;;;;;;18.50;4.60;;;;;;;28.88;61.04;94446.81;6113056;23;20588;-80
2022/08/25 11:28:14;;;;;;;20.23;5.00;;;;;;;28.69;61.28;94454.63;6113223;23;20171;-78
2022/08/25 11:30:41;;;;;;;25.15;5.60;;;;;;;28.66;62.70;94447.25;6112888;23;20157;-78
2022/08/25 11:33:12;;;;;;;25.48;5.32;;;;;;;28.87;62.30;94441.78;6111130;23;20275;-78
2022/08/25 11:35:43;;;;;;;20.55;4.70;;;;;;;29.01;61.41;94447.53;6113220;23;20273;-78
2022/08/25 11:38:25;;;;;;;31.10;4.72;;;;;;;28.95;62.35;94433.59;6113938;23;20161;-79